Terminal Aerodrome Forecast
Issued by NWS Wilmington, NC

Home | Current Version | Previous Version | Text Only | Print | Product List | Glossary On
Versions: 1 2 3 4 5 6 7 8 9 10 11 12 13 14 15
003
FTUS42 KILM 232320
TAFILM
TAF
KILM 232320Z 2400/2424 20013G21KT P6SM FEW060
     FM240900 22013KT P6SM BKN010
     FM241300 22013G24KT P6SM BKN250
     FM242200 21012G20KT 3SM TSRA BKN040CB=

USA.gov is the U.S. government's official web portal to all federal, state and local government web resources and services.